Weather at Kumanovo Airbase

Public forecast

Using degrees Celsius for public forecast. Weather courtesy of forecast.io.

Closest aviation weather report (METAR) to Kumanovo Airbase

Closest report is Skopje International Airport, 12.1 nm (22.4 km) SSW. Retrieved 2022/07/04 05:30 UTC (6 minutes ago):

LWSK 040530Z 00000KT CAVOK 23/18 Q1017 NOSIG

Closest aviation forecast (TAF) to Kumanovo Airbase

Closest forecast is Skopje International Airport, 12.1 nm (22.4 km) SSW. Retrieved 2022-07-04 03:33 UTC (2 hours ago):

TAF LWSK 040230Z 0403/0503 VRB02KT CAVOK PROB40 TEMPO 0412/0418 VRB15KT TSRA FEW033CB SCT040